Roaming Rock Shores, Ohio
Current Conditions -  °F | °C
As of 3:53 AM on Monday 20 Oct 2014 (Local Time) from KHZY Reporting Station
Scattered Clouds Scattered Clouds  
Wind Chill: 38°   Ceiling: Unl
Heat Index: 42°   Visibility: 10mi
Dew Point: 36°   Wind: 7mph
Humidity: 79%   Direction: 190°S
Pressure: 30.01"   Gusts: NA
Location:  41.6051°N, 80.867°W
Report Text: KHZY 200753Z AUTO 19006KT 10SM SCT110 06/02 A3001 RMK AO2 SLP164 T00560022
Loading
Personal Weather Stations






























Interactive Weather Map New forecast layout! Learn more

10-Day Weather Forecast

Advertisements
Track Severe Weather on mobile